sensor_id;sensor_type;location;lat;lon;timestamp;pressure;altitude;pressure_sealevel;temperature;humidity
31011;BME280;26395;53.412;19.598;2023-07-29T00:11:43;99619.95;;;16.41;100.00
31011;BME280;26395;53.412;19.598;2023-07-29T00:26:46;99630.83;;;16.05;100.00
31011;BME280;26395;53.412;19.598;2023-07-29T00:41:50;99624.55;;;16.18;100.00
31011;BME280;26395;53.412;19.598;2023-07-29T00:56:55;99641.11;;;16.08;100.00
31011;BME280;26395;53.412;19.598;2023-07-29T01:28:01;99656.83;;;15.46;100.00
31011;BME280;26395;53.412;19.598;2023-07-29T01:43:06;99662.05;;;15.21;100.00
31011;BME280;26395;53.412;19.598;2023-07-29T01:58:13;99675.45;;;14.89;100.00
31011;BME280;26395;53.412;19.598;2023-07-29T02:13:21;99690.92;;;14.69;100.00
31011;BME280;26395;53.412;19.598;2023-07-29T02:28:25;99693.03;;;14.76;100.00
31011;BME280;26395;53.412;19.598;2023-07-29T02:43:28;99699.63;;;14.62;100.00
31011;BME280;26395;53.412;19.598;2023-07-29T02:58:32;99700.01;;;14.17;100.00
31011;BME280;26395;53.412;19.598;2023-07-29T03:13:36;99709.91;;;13.87;100.00
31011;BME280;26395;53.412;19.598;2023-07-29T03:28:41;99720.38;;;14.07;100.00
31011;BME280;26395;53.412;19.598;2023-07-29T03:43:45;99735.23;;;14.14;100.00
31011;BME280;26395;53.412;19.598;2023-07-29T03:58:49;99740.13;;;14.35;100.00
31011;BME280;26395;53.412;19.598;2023-07-29T04:13:52;99748.31;;;14.51;100.00
31011;BME280;26395;53.412;19.598;2023-07-29T04:28:56;99748.58;;;14.91;100.00
31011;BME280;26395;53.412;19.598;2023-07-29T04:43:59;99757.13;;;15.16;100.00
31011;BME280;26395;53.412;19.598;2023-07-29T04:59:02;99749.98;;;15.78;100.00
31011;BME280;26395;53.412;19.598;2023-07-29T05:14:06;99755.88;;;16.06;100.00
31011;BME280;26395;53.412;19.598;2023-07-29T05:29:09;99768.91;;;17.08;100.00
31011;BME280;26395;53.412;19.598;2023-07-29T05:44:13;99779.84;;;17.95;100.00
31011;BME280;26395;53.412;19.598;2023-07-29T05:59:16;99791.06;;;20.92;98.43
31011;BME280;26395;53.412;19.598;2023-07-29T06:14:19;99786.90;;;23.53;92.40
31011;BME280;26395;53.412;19.598;2023-07-29T06:29:23;99793.45;;;25.31;82.32
31011;BME280;26395;53.412;19.598;2023-07-29T06:44:26;99799.51;;;26.62;78.03
31011;BME280;26395;53.412;19.598;2023-07-29T06:59:29;99807.74;;;27.11;72.93
31011;BME280;26395;53.412;19.598;2023-07-29T07:14:33;99804.38;;;26.85;73.32
31011;BME280;26395;53.412;19.598;2023-07-29T07:29:36;99793.80;;;27.01;72.34
31011;BME280;26395;53.412;19.598;2023-07-29T07:44:40;99796.86;;;27.70;69.30
31011;BME280;26395;53.412;19.598;2023-07-29T07:59:43;99783.10;;;28.39;68.77
31011;BME280;26395;53.412;19.598;2023-07-29T08:14:46;99779.15;;;28.18;66.15
31011;BME280;26395;53.412;19.598;2023-07-29T08:29:49;99779.89;;;28.33;64.31
31011;BME280;26395;53.412;19.598;2023-07-29T08:44:54;99765.61;;;28.59;64.27
31011;BME280;26395;53.412;19.598;2023-07-29T08:59:58;99757.13;;;28.14;61.50
31011;BME280;26395;53.412;19.598;2023-07-29T09:15:02;99751.10;;;28.65;60.65
31011;BME280;26395;53.412;19.598;2023-07-29T09:30:06;99754.64;;;29.23;56.88
31011;BME280;26395;53.412;19.598;2023-07-29T09:45:09;99734.48;;;30.01;55.94
31011;BME280;26395;53.412;19.598;2023-07-29T10:00:13;99730.83;;;29.98;54.22
31011;BME280;26395;53.412;19.598;2023-07-29T10:15:17;99732.88;;;29.64;53.37
31011;BME280;26395;53.412;19.598;2023-07-29T10:30:20;99720.52;;;30.12;52.25
31011;BME280;26395;53.412;19.598;2023-07-29T10:45:24;99721.23;;;30.62;50.60
31011;BME280;26395;53.412;19.598;2023-07-29T11:00:30;99720.52;;;30.93;49.96
31011;BME280;26395;53.412;19.598;2023-07-29T11:15:34;99699.42;;;31.88;49.49
31011;BME280;26395;53.412;19.598;2023-07-29T11:30:40;99680.33;;;32.07;47.76
31011;BME280;26395;53.412;19.598;2023-07-29T11:45:44;99675.10;;;31.82;48.23
31011;BME280;26395;53.412;19.598;2023-07-29T12:00:54;99665.34;;;32.13;47.06
31011;BME280;26395;53.412;19.598;2023-07-29T12:16:02;99651.19;;;30.94;48.13
31011;BME280;26395;53.412;19.598;2023-07-29T12:31:07;99622.09;;;31.20;48.12
31011;BME280;26395;53.412;19.598;2023-07-29T12:46:11;99610.91;;;31.59;47.98
31011;BME280;26395;53.412;19.598;2023-07-29T13:01:15;99592.75;;;31.63;47.41
31011;BME280;26395;53.412;19.598;2023-07-29T13:16:21;99567.91;;;31.06;47.76
31011;BME280;26395;53.412;19.598;2023-07-29T13:31:24;99558.70;;;30.06;50.15
31011;BME280;26395;53.412;19.598;2023-07-29T13:46:28;99542.42;;;30.44;50.64
31011;BME280;26395;53.412;19.598;2023-07-29T14:01:31;99538.17;;;30.49;51.06
31011;BME280;26395;53.412;19.598;2023-07-29T14:17:07;99520.38;;;30.84;51.22
31011;BME280;26395;53.412;19.598;2023-07-29T14:32:11;99505.30;;;30.86;51.00
31011;BME280;26395;53.412;19.598;2023-07-29T14:47:14;99482.12;;;31.13;50.81
31011;BME280;26395;53.412;19.598;2023-07-29T15:02:18;99455.58;;;30.56;51.93
31011;BME280;26395;53.412;19.598;2023-07-29T15:17:21;99444.76;;;29.83;53.36
31011;BME280;26395;53.412;19.598;2023-07-29T15:32:24;99432.30;;;30.10;53.97
31011;BME280;26395;53.412;19.598;2023-07-29T15:47:27;99428.02;;;29.86;53.89
31011;BME280;26395;53.412;19.598;2023-07-29T16:02:30;99413.77;;;29.46;54.71
31011;BME280;26395;53.412;19.598;2023-07-29T16:17:34;99399.37;;;29.70;54.99
31011;BME280;26395;53.412;19.598;2023-07-29T16:32:37;99392.28;;;29.77;54.83
31011;BME280;26395;53.412;19.598;2023-07-29T16:47:40;99383.91;;;29.21;55.48
31011;BME280;26395;53.412;19.598;2023-07-29T17:02:44;99391.52;;;28.76;57.07
31011;BME280;26395;53.412;19.598;2023-07-29T17:17:47;99386.73;;;28.25;58.68
31011;BME280;26395;53.412;19.598;2023-07-29T17:32:51;99369.55;;;27.87;60.03
31011;BME280;26395;53.412;19.598;2023-07-29T17:47:54;99375.00;;;27.39;61.83
31011;BME280;26395;53.412;19.598;2023-07-29T18:02:58;99384.22;;;27.07;62.78
31011;BME280;26395;53.412;19.598;2023-07-29T18:18:02;99482.66;;;25.47;71.23
31011;BME280;26395;53.412;19.598;2023-07-29T18:33:06;99516.16;;;23.74;82.92
31011;BME280;26395;53.412;19.598;2023-07-29T18:48:17;99465.00;;;23.21;87.21
31011;BME280;26395;53.412;19.598;2023-07-29T19:03:25;99435.63;;;23.10;87.36
31011;BME280;26395;53.412;19.598;2023-07-29T19:18:32;99396.76;;;22.73;88.85
31011;BME280;26395;53.412;19.598;2023-07-29T19:33:36;99469.33;;;22.81;89.61
31011;BME280;26395;53.412;19.598;2023-07-29T19:48:44;99512.07;;;22.04;96.76
31011;BME280;26395;53.412;19.598;2023-07-29T20:03:47;99493.23;;;22.00;98.16
31011;BME280;26395;53.412;19.598;2023-07-29T20:18:50;99480.39;;;21.57;98.43
31011;BME280;26395;53.412;19.598;2023-07-29T20:33:54;99483.48;;;21.23;100.00
31011;BME280;26395;53.412;19.598;2023-07-29T20:48:57;99430.91;;;21.32;100.00
31011;BME280;26395;53.412;19.598;2023-07-29T21:04:01;99369.67;;;21.12;100.00
31011;BME280;26395;53.412;19.598;2023-07-29T21:19:04;99367.64;;;20.98;100.00
31011;BME280;26395;53.412;19.598;2023-07-29T21:34:08;99377.54;;;21.72;100.00
31011;BME280;26395;53.412;19.598;2023-07-29T21:49:14;99355.77;;;21.79;100.00
31011;BME280;26395;53.412;19.598;2023-07-29T22:04:20;99352.91;;;21.93;100.00
31011;BME280;26395;53.412;19.598;2023-07-29T22:19:26;99364.49;;;21.55;100.00
31011;BME280;26395;53.412;19.598;2023-07-29T22:34:29;99373.23;;;21.66;100.00
31011;BME280;26395;53.412;19.598;2023-07-29T22:49:32;99381.99;;;21.63;100.00
31011;BME280;26395;53.412;19.598;2023-07-29T23:04:37;99403.86;;;21.32;100.00
31011;BME280;26395;53.412;19.598;2023-07-29T23:19:46;99428.28;;;21.17;100.00
31011;BME280;26395;53.412;19.598;2023-07-29T23:34:49;99448.00;;;21.45;100.00
31011;BME280;26395;53.412;19.598;2023-07-29T23:49:52;99443.80;;;21.46;100.00
